Time;durP1;ratioP1;P1;durP2;ratioP2;P2;SDS_P1;SDS_P2;PMS_P1;PMS_P2;Temp;Humidity;BMP_temperature;BMP_pressure;BME280_temperature;BME280_humidity;BME280_pressure;Samples;Min_cycle;Max_cycle;Signal;HPM_P1;HPM_P2
2023/02/06 00:01:18;;;;;;;22.10;19.50;;;0.10;93.40;;;;;;5034099;28;20567;-89
2023/02/06 00:03:43;;;;;;;23.23;20.30;;;0.10;93.30;;;;;;5032959;28;20174;-90
2023/02/06 00:06:09;;;;;;;27.40;20.00;;;0.00;93.20;;;;;;5033519;28;20176;-91
2023/02/06 00:08:34;;;;;;;26.50;18.57;;;0.00;93.10;;;;;;5032846;28;20219;-90
2023/02/06 00:11:06;;;;;;;28.07;20.53;;;0.00;93.10;;;;;;5032926;28;20196;-90
2023/02/06 00:13:32;;;;;;;29.33;19.37;;;0.00;93.00;;;;;;5032995;28;20185;-90
2023/02/06 00:15:58;;;;;;;25.27;20.47;;;0.00;93.00;;;;;;5032745;28;20236;-90
2023/02/06 00:18:24;;;;;;;31.57;21.87;;;0.00;93.00;;;;;;5032720;28;20679;-90
2023/02/06 00:20:49;;;;;;;30.90;20.50;;;0.00;93.00;;;;;;5033503;28;20195;-89
2023/02/06 00:23:15;;;;;;;36.00;22.40;;;0.00;92.90;;;;;;5032564;28;20528;-90
2023/02/06 00:25:40;;;;;;;27.63;21.63;;;0.00;92.90;;;;;;5032626;28;20215;-90
2023/02/06 00:28:06;;;;;;;34.60;20.43;;;0.00;93.00;;;;;;5032485;28;20211;-90
2023/02/06 00:30:31;;;;;;;30.60;20.80;;;0.10;93.00;;;;;;5032527;28;20251;-89
2023/02/06 00:32:57;;;;;;;32.37;22.07;;;0.10;93.00;;;;;;5032627;28;20270;-89
2023/02/06 00:35:22;;;;;;;31.17;20.93;;;0.10;93.00;;;;;;5032344;28;20181;-90
2023/02/06 00:37:48;;;;;;;31.20;20.87;;;0.10;93.00;;;;;;5032298;28;20210;-89
2023/02/06 00:40:13;;;;;;;27.80;21.63;;;0.00;93.00;;;;;;5032375;28;20635;-90
2023/02/06 00:42:39;;;;;;;28.77;21.50;;;0.00;93.00;;;;;;5032239;28;20541;-89
2023/02/06 00:45:05;;;;;;;30.83;19.93;;;0.00;93.00;;;;;;5032439;28;20180;-89
2023/02/06 00:47:31;;;;;;;29.07;19.77;;;0.00;93.00;;;;;;5032068;28;20241;-89
2023/02/06 00:49:56;;;;;;;23.63;20.07;;;0.00;93.00;;;;;;5032077;28;20175;-89
2023/02/06 00:52:22;;;;;;;25.30;18.90;;;0.00;93.00;;;;;;5033532;28;20551;-90
2023/02/06 00:54:47;;;;;;;34.87;20.40;;;-0.10;93.00;;;;;;5032468;28;20184;-89
2023/02/06 00:57:12;;;;;;;25.27;19.60;;;0.00;93.10;;;;;;5032152;28;20206;-89
2023/02/06 00:59:38;;;;;;;28.20;19.20;;;0.00;93.10;;;;;;5032105;28;20230;-89
2023/02/06 01:02:03;;;;;;;30.70;18.73;;;0.00;93.10;;;;;;5031922;28;20752;-89
2023/02/06 01:04:29;;;;;;;26.73;18.63;;;0.00;93.10;;;;;;5032085;28;20174;-89
2023/02/06 01:06:54;;;;;;;27.17;18.53;;;0.00;93.10;;;;;;5032021;28;20282;-89
2023/02/06 01:09:20;;;;;;;31.23;18.90;;;0.10;93.10;;;;;;5032007;28;20187;-90
2023/02/06 01:11:45;;;;;;;26.10;18.97;;;0.00;93.00;;;;;;5033423;28;20201;-89
2023/02/06 01:14:11;;;;;;;37.50;18.87;;;0.00;93.00;;;;;;5031961;28;20177;-88
2023/02/06 01:16:36;;;;;;;27.97;16.60;;;-0.10;92.90;;;;;;5031959;28;20683;-89
2023/02/06 01:19:02;;;;;;;22.93;17.90;;;-0.10;92.90;;;;;;5033065;28;20180;-89
2023/02/06 01:21:28;;;;;;;28.60;18.73;;;-0.10;92.90;;;;;;5032707;28;20541;-91
2023/02/06 01:23:54;;;;;;;32.00;20.37;;;-0.10;92.90;;;;;;5032816;28;20182;-89
2023/02/06 01:26:24;;;;;;;34.27;19.93;;;-0.10;93.00;;;;;;5033312;28;20199;-88
2023/02/06 01:28:50;;;;;;;33.17;19.90;;;0.00;93.00;;;;;;5031888;28;20170;-88
2023/02/06 01:31:27;;;;;;;33.30;19.60;;;0.00;93.00;;;;;;5031933;28;20210;-89
2023/02/06 01:33:54;;;;;;;25.87;20.87;;;0.00;93.00;;;;;;5031938;28;20548;-88
2023/02/06 01:36:21;;;;;;;32.63;21.87;;;0.00;93.10;;;;;;5032767;28;20229;-91
2023/02/06 01:38:50;;;;;;;41.50;22.20;;;0.00;93.00;;;;;;5031677;28;20656;-90
2023/02/06 01:41:17;;;;;;;33.23;20.63;;;0.00;93.00;;;;;;5031612;28;20248;-89
2023/02/06 01:43:47;;;;;;;28.90;20.40;;;0.00;93.00;;;;;;5031599;28;20252;-90
2023/02/06 01:46:12;;;;;;;27.07;20.53;;;-0.10;92.90;;;;;;5031725;28;20224;-90
2023/02/06 01:48:53;;;;;;;29.07;19.40;;;-0.10;92.90;;;;;;5031635;28;20690;-90
2023/02/06 01:51:22;;;;;;;27.73;20.80;;;-0.10;92.90;;;;;;5031538;28;20200;-90
2023/02/06 01:53:51;;;;;;;32.70;20.73;;;-0.10;92.90;;;;;;5032776;28;20566;-90
2023/02/06 01:56:19;;;;;;;26.77;21.77;;;-0.10;92.90;;;;;;5033016;28;20179;-90
2023/02/06 01:58:50;;;;;;;28.67;20.80;;;-0.10;92.90;;;;;;5031431;28;20180;-90
2023/02/06 02:01:17;;;;;;;34.23;20.77;;;-0.10;92.90;;;;;;5032949;28;20289;-90
2023/02/06 02:03:45;;;;;;;28.53;21.70;;;-0.10;92.90;;;;;;5036401;28;20277;-90
2023/02/06 02:06:14;;;;;;;31.33;21.77;;;-0.20;92.90;;;;;;5035152;28;20181;-90
2023/02/06 02:08:43;;;;;;;37.10;22.90;;;-0.20;92.90;;;;;;5035079;28;20180;-90
2023/02/06 02:11:14;;;;;;;32.40;21.27;;;-0.30;92.90;;;;;;5034918;28;20209;-90
2023/02/06 02:13:40;;;;;;;36.40;22.17;;;-0.30;92.90;;;;;;5036211;28;20224;-90
2023/02/06 02:16:18;;;;;;;29.80;24.10;;;-0.30;93.00;;;;;;5034803;28;20191;-90
2023/02/06 02:19:07;;;;;;;28.70;22.40;;;-0.20;93.00;;;;;;5034961;28;20186;-90
2023/02/06 02:21:51;;;;;;;31.27;22.37;;;-0.30;92.90;;;;;;5034779;28;20200;-90
2023/02/06 02:24:22;;;;;;;34.10;22.53;;;-0.20;93.00;;;;;;5035389;28;20259;-90
2023/02/06 02:27:06;;;;;;;42.83;25.20;;;-0.10;93.00;;;;;;5034822;28;20175;-90
2023/02/06 02:29:51;;;;;;;41.90;24.20;;;-0.10;93.00;;;;;;5034870;28;20163;-90
2023/02/06 02:32:28;;;;;;;35.50;23.10;;;-0.10;93.00;;;;;;5034682;28;20723;-90
2023/02/06 02:35:01;;;;;;;31.40;22.93;;;-0.20;93.00;;;;;;5034577;28;20341;-90
2023/02/06 02:37:47;;;;;;;36.17;21.77;;;-0.20;93.00;;;;;;5034660;28;20678;-89
2023/02/06 02:40:45;;;;;;;35.90;23.27;;;-0.30;93.00;;;;;;5034672;28;20191;-90
2023/02/06 02:43:43;;;;;;;33.43;22.53;;;-0.30;93.00;;;;;;5011730;28;20186;-90
2023/02/06 02:46:35;;;;;;;36.10;21.90;;;-0.30;93.00;;;;;;5034534;28;20693;-91
2023/02/06 02:49:04;;;;;;;29.37;22.70;;;-0.30;93.00;;;;;;5034612;28;20595;-90
2023/02/06 02:51:32;;;;;;;36.43;19.77;;;-0.20;93.10;;;;;;5034281;28;20193;-90
2023/02/06 02:53:58;;;;;;;37.37;20.73;;;-0.20;93.10;;;;;;5035011;28;20509;-90
2023/02/06 02:56:25;;;;;;;39.77;23.63;;;-0.20;93.10;;;;;;5035709;28;20179;-90
2023/02/06 02:58:59;;;;;;;32.60;21.90;;;-0.30;93.00;;;;;;5034148;28;20168;-90
2023/02/06 03:01:28;;;;;;;35.83;21.10;;;-0.30;93.00;;;;;;5034876;28;20208;-90
2023/02/06 03:03:58;;;;;;;31.77;22.23;;;-0.30;93.00;;;;;;5034000;28;20205;-90
2023/02/06 03:06:42;;;;;;;31.00;19.73;;;-0.30;93.00;;;;;;5033979;28;20176;-90
2023/02/06 03:09:25;;;;;;;32.53;23.57;;;-0.40;93.00;;;;;;5034036;28;20174;-90
2023/02/06 03:12:10;;;;;;;30.47;22.03;;;-0.40;93.10;;;;;;5035091;28;20199;-90
2023/02/06 03:15:02;;;;;;;35.87;23.90;;;-0.40;93.00;;;;;;5033668;28;20168;-90
2023/02/06 03:17:48;;;;;;;29.77;23.57;;;-0.40;93.10;;;;;;5033721;28;20324;-90
2023/02/06 03:20:15;;;;;;;36.40;23.03;;;-0.30;93.30;;;;;;5033703;28;20168;-90
2023/02/06 03:22:44;;;;;;;39.07;23.97;;;-0.20;93.30;;;;;;5033738;28;20182;-90
2023/02/06 03:25:14;;;;;;;39.10;23.50;;;-0.20;93.30;;;;;;5034014;28;20180;-90
2023/02/06 03:27:41;;;;;;;42.50;23.43;;;-0.10;93.40;;;;;;5033633;28;20181;-90
2023/02/06 03:30:09;;;;;;;42.27;26.80;;;-0.20;93.40;;;;;;5033582;28;20188;-90
2023/02/06 03:32:40;;;;;;;34.77;24.47;;;-0.20;93.40;;;;;;5033715;28;20190;-90
2023/02/06 03:35:17;;;;;;;44.77;24.43;;;-0.20;93.40;;;;;;5033459;28;20257;-90
2023/02/06 03:37:43;;;;;;;49.07;24.07;;;-0.20;93.40;;;;;;5033788;28;20203;-90
2023/02/06 03:40:10;;;;;;;39.40;25.33;;;-0.30;93.40;;;;;;5033358;28;20548;-90
2023/02/06 03:42:41;;;;;;;34.67;24.90;;;-0.30;93.50;;;;;;5033330;28;20179;-90
2023/02/06 03:45:11;;;;;;;45.67;27.03;;;-0.20;93.50;;;;;;5033298;28;20219;-89
2023/02/06 03:47:38;;;;;;;42.00;26.27;;;-0.30;93.50;;;;;;5033092;28;20320;-90
2023/02/06 03:50:06;;;;;;;56.23;25.93;;;-0.20;93.70;;;;;;5033216;28;20547;-90
2023/02/06 03:52:37;;;;;;;51.70;26.10;;;-0.20;93.70;;;;;;5033471;28;20194;-90
2023/02/06 03:55:09;;;;;;;42.07;25.07;;;-0.20;93.70;;;;;;5033084;28;20256;-90
2023/02/06 03:57:36;;;;;;;45.27;27.30;;;-0.30;93.70;;;;;;5034076;28;20766;-90
2023/02/06 04:00:04;;;;;;;53.90;28.17;;;-0.30;93.80;;;;;;5034231;28;20199;-90
2023/02/06 04:02:30;;;;;;;37.30;26.30;;;-0.30;93.80;;;;;;5033198;28;20193;-90
2023/02/06 04:04:56;;;;;;;49.80;23.83;;;-0.30;93.80;;;;;;5032853;28;20600;-90
2023/02/06 04:07:30;;;;;;;35.77;24.73;;;-0.40;93.80;;;;;;5033008;28;20181;-90
2023/02/06 04:09:56;;;;;;;49.00;28.60;;;-0.40;93.90;;;;;;5032827;28;20614;-91
2023/02/06 04:12:23;;;;;;;45.70;28.63;;;-0.30;94.00;;;;;;5032792;28;20210;-90
2023/02/06 04:14:48;;;;;;;45.50;29.20;;;-0.20;94.00;;;;;;5032703;28;20646;-90
2023/02/06 04:17:14;;;;;;;44.87;26.67;;;-0.10;94.10;;;;;;5032592;28;20207;-90
2023/02/06 04:19:40;;;;;;;36.83;26.27;;;-0.10;94.10;;;;;;5032592;28;20173;-91
2023/02/06 04:22:10;;;;;;;52.83;28.30;;;-0.10;94.10;;;;;;5034062;28;20187;-90
2023/02/06 04:24:38;;;;;;;47.07;29.70;;;-0.10;94.20;;;;;;5032174;28;20559;-90
2023/02/06 04:27:03;;;;;;;40.53;26.17;;;-0.20;94.10;;;;;;5032399;28;20653;-89
2023/02/06 04:29:29;;;;;;;42.63;28.10;;;-0.20;94.20;;;;;;5034080;28;20267;-90
2023/02/06 04:32:00;;;;;;;49.50;29.40;;;-0.20;94.30;;;;;;5032532;28;20195;-90
2023/02/06 04:34:32;;;;;;;58.17;29.87;;;-0.10;94.30;;;;;;5033563;28;20154;-90
2023/02/06 04:36:59;;;;;;;49.07;29.90;;;0.00;94.40;;;;;;5032427;28;20196;-90
2023/02/06 04:39:24;;;;;;;42.37;29.67;;;0.00;94.40;;;;;;5033523;28;20186;-91
2023/02/06 04:41:50;;;;;;;54.57;31.43;;;0.00;94.50;;;;;;5032375;28;20193;-90
2023/02/06 04:44:16;;;;;;;52.93;31.10;;;0.10;94.50;;;;;;5032511;28;20213;-90
2023/02/06 04:46:42;;;;;;;54.27;31.27;;;0.20;94.60;;;;;;5032392;28;20190;-90
2023/02/06 04:49:08;;;;;;;47.97;31.73;;;0.30;94.60;;;;;;5034102;28;20205;-90
2023/02/06 04:51:34;;;;;;;43.10;29.87;;;0.30;94.60;;;;;;5032242;28;20585;-90
2023/02/06 04:54:00;;;;;;;61.77;32.33;;;0.20;94.60;;;;;;5032323;28;20186;-91
2023/02/06 04:56:26;;;;;;;54.87;30.90;;;0.20;94.60;;;;;;5032047;28;20613;-91
2023/02/06 04:58:51;;;;;;;62.00;31.25;;;0.10;94.60;;;;;;5032128;28;20271;-90
2023/02/06 05:01:18;;;;;;;51.87;33.77;;;0.10;94.60;;;;;;5033653;28;20585;-90
2023/02/06 05:03:44;;;;;;;65.73;34.93;;;0.20;94.70;;;;;;5032116;28;20206;-90
2023/02/06 05:06:10;;;;;;;67.43;34.93;;;0.20;94.70;;;;;;5032016;28;20732;-90
2023/02/06 05:08:35;;;;;;;57.43;34.20;;;0.20;94.70;;;;;;5032051;28;20180;-90
2023/02/06 05:11:01;;;;;;;45.40;33.00;;;0.30;94.70;;;;;;5032088;28;20252;-90
2023/02/06 05:13:26;;;;;;;61.37;36.30;;;0.20;94.70;;;;;;5033427;28;20183;-90
2023/02/06 05:15:52;;;;;;;55.10;37.37;;;0.30;94.70;;;;;;5031972;28;20212;-90
2023/02/06 05:18:17;;;;;;;53.33;36.57;;;0.20;94.70;;;;;;5031982;28;20253;-90
2023/02/06 05:20:44;;;;;;;53.80;36.93;;;0.20;94.70;;;;;;5031849;28;20571;-90
2023/02/06 05:23:09;;;;;;;60.83;40.83;;;0.20;94.70;;;;;;5032813;28;20173;-90
2023/02/06 05:25:35;;;;;;;57.53;44.33;;;0.30;94.70;;;;;;5033273;28;20182;-91
2023/02/06 05:28:05;;;;;;;71.77;49.90;;;0.30;94.80;;;;;;5031859;28;20242;-91
2023/02/06 05:30:31;;;;;;;70.53;48.03;;;0.40;94.80;;;;;;5033013;28;20200;-90
2023/02/06 05:32:56;;;;;;;88.00;54.90;;;0.40;94.80;;;;;;5033237;28;20180;-90
2023/02/06 05:35:23;;;;;;;74.53;54.90;;;0.60;94.90;;;;;;5031890;28;20174;-90
2023/02/06 05:37:48;;;;;;;72.00;59.50;;;0.60;94.80;;;;;;5036938;28;20334;-90
2023/02/06 05:40:14;;;;;;;67.03;56.80;;;0.50;94.70;;;;;;5035559;28;20178;-90
2023/02/06 05:42:40;;;;;;;64.10;57.40;;;0.30;94.60;;;;;;5035989;28;20321;-90
2023/02/06 05:45:06;;;;;;;59.07;53.10;;;0.20;94.60;;;;;;5036740;28;20191;-90
2023/02/06 05:47:31;;;;;;;64.30;57.37;;;0.20;94.70;;;;;;5035276;28;20203;-90
2023/02/06 05:49:57;;;;;;;65.03;56.83;;;0.10;94.70;;;;;;5035566;28;20171;-90
2023/02/06 05:52:22;;;;;;;63.17;56.83;;;0.00;94.70;;;;;;5035674;28;20291;-90
2023/02/06 05:54:48;;;;;;;54.73;48.87;;;0.00;94.70;;;;;;5035322;28;20182;-90
2023/02/06 05:57:13;;;;;;;67.90;54.63;;;0.00;94.70;;;;;;5035133;28;20547;-90
2023/02/06 05:59:39;;;;;;;72.70;58.00;;;0.00;94.70;;;;;;5035164;28;20165;-90
2023/02/06 06:02:04;;;;;;;69.80;62.63;;;0.00;94.60;;;;;;5036361;28;20194;-90
2023/02/06 06:04:30;;;;;;;67.57;60.90;;;0.00;94.60;;;;;;5035056;28;20183;-90
2023/02/06 06:06:55;;;;;;;73.40;63.57;;;0.00;94.70;;;;;;5035495;28;20173;-90
2023/02/06 06:09:21;;;;;;;67.33;61.00;;;0.00;94.60;;;;;;5036576;28;20184;-90
2023/02/06 06:11:47;;;;;;;69.33;62.97;;;0.00;94.60;;;;;;5035070;28;20196;-90
2023/02/06 06:14:13;;;;;;;68.63;61.77;;;0.00;94.70;;;;;;5035352;28;20183;-90
2023/02/06 06:16:39;;;;;;;67.50;60.90;;;0.00;94.60;;;;;;5034887;28;20230;-90
2023/02/06 06:19:05;;;;;;;70.40;62.77;;;0.00;94.60;;;;;;5036123;28;20545;-90
2023/02/06 06:21:31;;;;;;;66.77;61.70;;;-0.10;94.60;;;;;;5034838;28;20201;-90
2023/02/06 06:23:56;;;;;;;66.83;60.83;;;-0.10;94.60;;;;;;5035079;28;20178;-90
2023/02/06 06:26:22;;;;;;;63.87;58.43;;;-0.10;94.70;;;;;;5034799;28;20175;-90
2023/02/06 06:28:48;;;;;;;64.60;58.83;;;-0.10;94.70;;;;;;5034721;28;20676;-90
2023/02/06 06:31:13;;;;;;;68.03;60.93;;;-0.10;94.60;;;;;;5034936;28;20192;-90
2023/02/06 06:33:39;;;;;;;63.63;57.13;;;-0.10;94.60;;;;;;5034813;28;20172;-90
2023/02/06 06:36:07;;;;;;;63.03;56.50;;;-0.10;94.60;;;;;;5035364;28;20175;-90
2023/02/06 06:38:33;;;;;;;61.10;55.23;;;-0.20;94.60;;;;;;5034540;28;20704;-91
2023/02/06 06:40:59;;;;;;;59.60;53.67;;;-0.20;94.60;;;;;;5034436;28;20194;-90
2023/02/06 06:43:24;;;;;;;65.23;56.47;;;-0.20;94.60;;;;;;5034480;28;20272;-90
2023/02/06 06:45:50;;;;;;;60.27;54.20;;;-0.20;94.60;;;;;;5035861;28;20183;-90
2023/02/06 06:48:15;;;;;;;58.70;53.13;;;-0.30;94.60;;;;;;5035270;28;20203;-91
2023/02/06 06:50:41;;;;;;;59.83;54.13;;;-0.20;94.60;;;;;;5035033;28;20204;-90
2023/02/06 06:53:07;;;;;;;61.40;55.50;;;-0.20;94.70;;;;;;5034911;28;20180;-91
2023/02/06 06:55:32;;;;;;;56.10;50.30;;;-0.20;94.70;;;;;;5034863;28;20180;-90
2023/02/06 06:57:58;;;;;;;60.30;53.07;;;-0.50;94.50;;;;;;5034157;28;20288;-90
2023/02/06 07:00:24;;;;;;;57.13;49.63;;;-0.40;94.70;;;;;;5035291;28;20183;-91
2023/02/06 07:02:49;;;;;;;62.43;49.97;;;-0.50;94.70;;;;;;5034126;28;20175;-90
2023/02/06 07:05:15;;;;;;;58.23;51.50;;;-0.50;94.70;;;;;;5033963;28;20238;-90
2023/02/06 07:07:41;;;;;;;62.37;56.00;;;-0.40;94.70;;;;;;5034015;28;20537;-90
2023/02/06 07:10:07;;;;;;;53.07;48.37;;;-0.30;94.70;;;;;;5033984;28;20182;-90
2023/02/06 07:12:33;;;;;;;59.57;53.70;;;-0.30;94.70;;;;;;5034957;28;20203;-90
2023/02/06 07:14:58;;;;;;;57.30;51.43;;;-0.30;94.70;;;;;;5033905;28;20186;-90
2023/02/06 07:17:24;;;;;;;58.47;51.67;;;-0.40;94.70;;;;;;5034006;28;20526;-90
2023/02/06 07:19:51;;;;;;;56.80;48.97;;;-0.40;94.70;;;;;;5033869;28;20549;-90
2023/02/06 07:22:17;;;;;;;66.20;59.03;;;-0.30;94.80;;;;;;5033866;28;20195;-90
2023/02/06 07:24:43;;;;;;;63.20;55.43;;;-0.20;94.80;;;;;;5034128;28;20176;-90
2023/02/06 07:27:09;;;;;;;61.60;55.87;;;-0.10;94.80;;;;;;5035149;28;20179;-89
2023/02/06 07:29:34;;;;;;;71.23;65.10;;;-0.10;94.80;;;;;;5034786;28;20184;-90
2023/02/06 07:32:00;;;;;;;67.30;60.93;;;0.00;94.80;;;;;;5033402;28;20286;-90
2023/02/06 07:34:26;;;;;;;75.83;67.87;;;0.00;94.80;;;;;;5033451;28;20183;-90
2023/02/06 07:36:51;;;;;;;71.70;64.77;;;0.00;94.80;;;;;;5034774;28;20203;-90
2023/02/06 07:39:17;;;;;;;80.70;72.70;;;0.00;94.80;;;;;;5033442;28;20200;-90
2023/02/06 07:41:44;;;;;;;77.70;71.23;;;0.00;94.80;;;;;;5033387;28;20202;-90
2023/02/06 07:44:10;;;;;;;79.07;71.20;;;0.00;94.80;;;;;;5033270;28;20180;-90
2023/02/06 07:46:36;;;;;;;78.50;72.10;;;0.00;94.80;;;;;;5034446;28;20176;-90
2023/02/06 07:49:01;;;;;;;83.67;75.63;;;0.00;94.80;;;;;;5033141;28;20199;-90
2023/02/06 07:51:27;;;;;;;80.93;73.93;;;0.10;94.80;;;;;;5033185;28;20673;-90
2023/02/06 07:53:53;;;;;;;77.80;70.47;;;0.20;94.80;;;;;;5033014;28;20183;-90
2023/02/06 07:56:22;;;;;;;80.90;73.33;;;0.20;94.80;;;;;;5034775;28;20188;-90
2023/02/06 07:58:52;;;;;;;78.73;71.17;;;0.10;94.80;;;;;;5032378;28;20203;-90
2023/02/06 08:01:18;;;;;;;84.10;75.97;;;0.20;94.80;;;;;;5032818;28;20228;-89
2023/02/06 08:03:43;;;;;;;82.07;74.87;;;0.30;94.90;;;;;;5034508;28;20176;-90
2023/02/06 08:06:14;;;;;;;87.47;78.97;;;0.30;94.90;;;;;;5032919;28;20559;-90
2023/02/06 08:08:40;;;;;;;89.27;81.63;;;0.30;94.90;;;;;;5032819;28;20192;-90
2023/02/06 08:11:08;;;;;;;87.13;79.63;;;0.40;94.90;;;;;;5033890;28;20200;-90
2023/02/06 08:13:34;;;;;;;89.27;80.80;;;0.40;94.90;;;;;;5034068;28;20318;-90
2023/02/06 08:16:11;;;;;;;86.37;77.87;;;0.40;94.90;;;;;;5032706;28;20201;-90
2023/02/06 08:18:37;;;;;;;85.07;77.43;;;0.40;94.90;;;;;;5032600;28;20273;-90
2023/02/06 08:21:05;;;;;;;87.40;80.43;;;0.40;94.90;;;;;;5033822;28;20214;-90
2023/02/06 08:23:31;;;;;;;92.03;82.80;;;0.50;95.00;;;;;;5032889;28;20216;-91
2023/02/06 08:26:05;;;;;;;85.90;77.80;;;0.40;94.90;;;;;;5032674;28;20173;-90
2023/02/06 08:28:31;;;;;;;93.60;84.23;;;0.50;94.90;;;;;;5032639;28;20179;-90
2023/02/06 08:30:57;;;;;;;99.80;84.50;;;0.50;95.00;;;;;;5032391;28;20197;-90
2023/02/06 08:33:22;;;;;;;183.87;95.13;;;0.60;95.00;;;;;;5033617;28;20646;-90
2023/02/06 08:35:48;;;;;;;106.63;92.23;;;0.60;95.00;;;;;;5032507;28;20192;-90
2023/02/06 08:38:13;;;;;;;101.07;91.37;;;0.70;95.00;;;;;;5034108;28;20225;-91
2023/02/06 08:40:39;;;;;;;100.50;91.33;;;0.80;95.00;;;;;;5032487;28;20571;-89
2023/02/06 08:43:04;;;;;;;110.67;100.40;;;0.80;95.00;;;;;;5032543;28;20193;-89
2023/02/06 08:45:30;;;;;;;106.30;97.00;;;0.80;95.00;;;;;;5032903;28;20215;-91
2023/02/06 08:47:55;;;;;;;103.17;93.43;;;0.80;95.00;;;;;;5033456;28;20256;-90
2023/02/06 08:50:21;;;;;;;221.90;101.67;;;0.80;95.00;;;;;;5032378;28;20179;-90
2023/02/06 08:52:46;;;;;;;237.27;108.20;;;0.80;95.00;;;;;;5032355;28;20668;-91
2023/02/06 08:55:12;;;;;;;206.13;103.43;;;1.00;95.10;;;;;;5032703;28;20180;-90
2023/02/06 08:57:37;;;;;;;121.33;106.90;;;1.10;95.10;;;;;;5033081;28;20204;-91
2023/02/06 09:00:03;;;;;;;187.37;100.63;;;1.00;95.00;;;;;;5033136;28;20202;-90
2023/02/06 09:02:29;;;;;;;115.50;98.70;;;1.00;95.10;;;;;;5032625;28;20241;-91
2023/02/06 09:04:54;;;;;;;278.83;104.27;;;1.00;95.10;;;;;;5032632;28;20184;-91
2023/02/06 09:07:21;;;;;;;184.00;102.23;;;1.10;95.10;;;;;;5032750;28;20176;-91
2023/02/06 09:09:46;;;;;;;218.23;106.27;;;1.20;95.10;;;;;;5033602;28;20179;-91
2023/02/06 09:12:12;;;;;;;230.30;112.40;;;1.30;95.10;;;;;;5038076;28;20279;-91
2023/02/06 09:14:38;;;;;;;158.53;112.23;;;1.30;95.10;;;;;;5036687;28;20271;-91
2023/02/06 09:17:03;;;;;;;127.93;112.10;;;1.30;95.10;;;;;;5037910;28;20545;-91
2023/02/06 09:19:29;;;;;;;135.40;112.30;;;1.30;95.10;;;;;;5036620;28;20638;-91
2023/02/06 09:21:55;;;;;;;157.40;120.47;;;1.40;95.20;;;;;;5036239;28;20700;-91
2023/02/06 09:24:20;;;;;;;191.73;118.30;;;1.50;95.20;;;;;;5037113;28;20169;-91
2023/02/06 09:26:46;;;;;;;134.57;119.33;;;1.70;95.20;;;;;;5036231;28;20179;-91
2023/02/06 09:29:12;;;;;;;193.47;123.37;;;1.70;95.20;;;;;;5036066;28;20172;-90
2023/02/06 09:31:40;;;;;;;182.90;120.47;;;1.80;95.20;;;;;;5036023;28;20199;-90
2023/02/06 09:34:07;;;;;;;214.50;124.50;;;1.70;95.10;;;;;;5036519;28;20177;-91
2023/02/06 09:36:33;;;;;;;190.83;126.37;;;1.70;95.10;;;;;;5036246;28;20210;-90
2023/02/06 09:39:01;;;;;;;201.43;122.23;;;1.70;95.20;;;;;;5036642;28;20175;-91
2023/02/06 09:41:51;;;;;;;183.17;126.13;;;1.70;95.20;;;;;;5035875;28;20193;-90
2023/02/06 09:44:24;;;;;;;163.50;122.33;;;1.70;95.20;;;;;;5037301;28;20162;-90
2023/02/06 09:46:57;;;;;;;214.10;119.47;;;1.80;95.20;;;;;;5035876;28;20594;-90
2023/02/06 09:49:49;;;;;;;185.13;125.00;;;1.70;95.20;;;;;;5035864;28;20216;-90
2023/02/06 09:52:42;;;;;;;191.60;123.77;;;1.80;95.30;;;;;;5035598;28;20207;-90
2023/02/06 09:55:28;;;;;;;160.13;118.17;;;1.80;95.20;;;;;;5036277;28;20183;-90
2023/02/06 09:58:21;;;;;;;146.77;126.77;;;1.80;95.20;;;;;;5035110;28;20209;-90
2023/02/06 10:00:58;;;;;;;137.50;123.87;;;1.70;95.20;;;;;;5035541;28;20189;-89
2023/02/06 10:03:47;;;;;;;142.57;118.10;;;1.80;95.30;;;;;;5035554;28;20164;-89
2023/02/06 10:06:28;;;;;;;148.13;123.03;;;1.70;95.20;;;;;;5036491;28;20522;-90
2023/02/06 10:09:16;;;;;;;199.63;123.97;;;1.70;95.30;;;;;;5035665;28;20179;-90
2023/02/06 10:12:14;;;;;;;134.00;119.60;;;1.70;95.30;;;;;;5035653;28;20703;-89
2023/02/06 10:14:48;;;;;;;130.60;118.17;;;1.70;95.30;;;;;;5036692;28;20203;-90
2023/02/06 10:17:25;;;;;;;136.13;120.40;;;1.70;95.30;;;;;;5035682;28;20203;-89
2023/02/06 10:20:16;;;;;;;150.37;121.97;;;1.70;95.40;;;;;;5035357;28;20169;-89
2023/02/06 10:23:11;;;;;;;167.10;124.63;;;1.80;95.40;;;;;;5035308;28;20191;-90
2023/02/06 10:25:44;;;;;;;160.17;123.77;;;1.80;95.40;;;;;;5035378;28;20219;-90
2023/02/06 10:28:24;;;;;;;138.70;124.47;;;1.80;95.50;;;;;;5035262;28;20169;-90
2023/02/06 10:31:24;;;;;;;157.93;128.33;;;1.80;95.40;;;;;;5035056;28;20199;-90
2023/02/06 10:34:16;;;;;;;143.80;121.90;;;1.80;95.50;;;;;;5034946;28;20183;-90
2023/02/06 10:37:05;;;;;;;137.53;121.37;;;1.90;95.50;;;;;;5034666;28;20164;-90
2023/02/06 10:39:56;;;;;;;143.35;127.65;;;2.00;95.50;;;;;;5034735;28;20171;-88
2023/02/06 10:43:00;;;;;;;141.25;127.65;;;2.00;95.60;;;;;;5034597;28;20208;-90
2023/02/06 10:45:47;;;;;;;139.90;129.83;;;2.00;95.50;;;;;;5034867;28;20171;-91
2023/02/06 10:48:34;;;;;;;142.50;130.43;;;2.00;95.50;;;;;;5035017;28;20200;-89
2023/02/06 10:51:26;;;;;;;140.97;128.70;;;2.10;95.60;;;;;;5035443;28;20643;-89
2023/02/06 10:53:56;;;;;;;146.13;132.50;;;2.10;95.50;;;;;;5038443;28;20189;-89
2023/02/06 10:56:32;;;;;;;150.17;134.37;;;2.00;95.50;;;;;;5036325;28;20192;-89
2023/02/06 10:59:40;;;;;;;143.77;131.90;;;2.10;95.60;;;;;;5034804;28;20179;-90
2023/02/06 11:02:08;;;;;;;152.17;136.97;;;2.20;95.60;;;;;;4977774;28;20201;-89
2023/02/06 11:05:00;;;;;;;148.17;136.07;;;2.30;95.70;;;;;;5039468;28;20647;-90
2023/02/06 11:07:30;;;;;;;146.33;134.63;;;2.30;95.60;;;;;;5026819;28;20322;-91
2023/02/06 11:09:55;;;;;;;148.43;136.70;;;2.40;95.70;;;;;;5035703;28;20187;-91
2023/02/06 11:12:30;;;;;;;148.37;137.43;;;2.40;95.70;;;;;;5035851;28;20200;-90
2023/02/06 11:15:00;;;;;;;146.17;134.33;;;2.50;95.70;;;;;;5035469;28;20635;-90
2023/02/06 11:17:27;;;;;;;154.27;142.43;;;2.50;95.70;;;;;;5034244;28;20580;-90
2023/02/06 11:20:01;;;;;;;151.93;141.67;;;2.50;95.70;;;;;;5034877;28;20205;-90
2023/02/06 11:22:29;;;;;;;153.53;142.50;;;2.60;95.70;;;;;;5033816;28;20207;-90
2023/02/06 11:25:06;;;;;;;158.33;147.37;;;2.50;95.70;;;;;;5035803;28;20180;-91
2023/02/06 11:27:34;;;;;;;159.80;148.30;;;2.60;95.70;;;;;;5034406;28;20181;-90
2023/02/06 11:30:08;;;;;;;158.07;145.27;;;2.60;95.70;;;;;;5034008;28;20184;-89
2023/02/06 11:32:41;;;;;;;172.13;153.70;;;2.60;95.70;;;;;;5033922;28;20196;-91
2023/02/06 11:35:30;;;;;;;173.03;156.33;;;2.50;95.70;;;;;;5033092;28;20216;-91
2023/02/06 11:38:05;;;;;;;167.07;154.67;;;2.40;95.60;;;;;;5033758;28;20217;-90
2023/02/06 11:40:30;;;;;;;163.80;151.40;;;2.40;95.60;;;;;;5034099;28;20182;-89
2023/02/06 11:43:20;;;;;;;207.93;151.07;;;2.40;95.70;;;;;;5034542;28;20176;-92
2023/02/06 11:45:47;;;;;;;206.47;148.47;;;2.40;95.60;;;;;;5033760;28;20555;-91
2023/02/06 11:48:35;;;;;;;154.50;137.10;;;2.20;95.50;;;;;;5033546;28;20196;-92
2023/02/06 11:51:01;;;;;;;153.23;136.77;;;2.10;95.50;;;;;;5033322;28;20204;-92
2023/02/06 11:53:27;;;;;;;160.77;137.17;;;2.00;95.50;;;;;;5034265;28;20180;-90
2023/02/06 11:56:02;;;;;;;154.67;138.00;;;2.00;95.50;;;;;;5034142;28;20203;-91
2023/02/06 11:58:29;;;;;;;146.97;133.97;;;1.90;95.50;;;;;;5047233;28;20207;-93
2023/02/06 12:01:01;;;;;;;146.80;132.77;;;1.90;95.50;;;;;;5052723;28;20388;-94
2023/02/06 12:03:30;;;;;;;137.40;125.13;;;1.90;95.50;;;;;;5059273;28;20203;-94
2023/02/06 12:06:05;;;;;;;138.97;124.73;;;1.80;95.50;;;;;;5059320;28;20166;-93
2023/02/06 12:08:42;;;;;;;296.87;123.23;;;1.70;95.50;;;;;;5059339;28;20172;-94
2023/02/06 12:11:16;;;;;;;213.17;123.80;;;1.60;95.50;;;;;;5059190;28;20247;-92
2023/02/06 12:13:46;;;;;;;126.90;113.87;;;1.70;95.60;;;;;;5059307;28;20191;-94
2023/02/06 12:16:14;;;;;;;162.53;117.97;;;1.80;95.60;;;;;;5059142;28;20161;-94
2023/02/06 12:18:43;;;;;;;152.03;120.10;;;1.70;95.60;;;;;;5058382;28;20200;-92
2023/02/06 12:21:25;;;;;;;150.23;118.23;;;1.80;95.60;;;;;;5053763;28;20210;-93
2023/02/06 12:24:00;;;;;;;127.90;118.43;;;1.80;95.70;;;;;;5058716;28;20155;-91
2023/02/06 12:26:37;;;;;;;127.33;116.70;;;1.80;95.70;;;;;;5058907;28;20160;-95
2023/02/06 12:29:21;;;;;;;129.17;117.20;;;1.80;95.70;;;;;;5058016;28;20160;-94
2023/02/06 12:32:13;;;;;;;128.77;114.17;;;1.80;95.70;;;;;;5055444;28;20203;-93
2023/02/06 12:35:05;;;;;;;151.87;121.70;;;1.70;95.70;;;;;;5058603;28;20220;-95
2023/02/06 12:37:36;;;;;;;128.07;116.87;;;1.80;95.80;;;;;;5058480;28;20199;-94
2023/02/06 12:40:02;;;;;;;131.73;120.10;;;1.90;95.80;;;;;;5058515;28;20164;-94
2023/02/06 12:42:42;;;;;;;120.30;112.10;;;2.00;95.80;;;;;;5058645;28;20197;-92
2023/02/06 12:45:26;;;;;;;121.90;113.57;;;2.10;95.80;;;;;;5058031;28;20198;-92